Time;durP1;ratioP1;P1;durP2;ratioP2;P2;SDS_P1;SDS_P2;PMS_P1;PMS_P2;Temp;Humidity;BMP_temperature;BMP_pressure;BME280_temperature;BME280_humidity;BME280_pressure;Samples;Min_cycle;Max_cycle;Signal;HPM_P1;HPM_P2
2022/04/01 00:01:13;;;;;;;;;;;;;;;29.65;22.41;99524.28;5038569;28;1543;-33
2022/04/01 00:03:38;;;;;;;;;;;;;;;29.60;22.86;99531.44;5038316;28;1393;-36
2022/04/01 00:06:04;;;;;;;;;;;;;;;30.34;22.21;99527.66;5037859;28;1902;-34
2022/04/01 00:08:29;;;;;;;;;;;;;;;29.94;22.01;99524.50;5026156;28;874;-37
2022/04/01 00:10:54;;;;;;;;;;;;;;;29.63;22.76;99502.00;5019522;28;754;-36
2022/04/01 00:13:20;;;;;;;;;;;;;;;30.15;22.27;99507.91;5018686;28;1021;-35
2022/04/01 00:15:46;;;;;;;;;;;;;;;29.94;22.15;99502.00;5018691;28;904;-37
2022/04/01 00:18:11;;;;;;;;;;;;;;;29.75;22.34;99493.09;5018479;28;805;-33
2022/04/01 00:20:37;;;;;;;;;;;;;;;29.50;22.42;99488.63;5019319;28;899;-36
2022/04/01 00:23:02;;;;;;;;;;;;;;;29.36;22.66;99521.34;5018678;28;906;-37
2022/04/01 00:25:27;;;;;;;;;;;;;;;29.29;22.55;99555.78;5024545;28;1902;-35
2022/04/01 00:27:53;;;;;;;;;;;;;;;29.98;22.37;99553.88;5018142;28;932;-35
2022/04/01 00:30:19;;;;;;;;;;;;;;;30.53;21.53;99533.78;5017828;28;888;-35
2022/04/01 00:32:44;;;;;;;;;;;;;;;29.57;22.24;99528.13;5022199;28;826;-38
2022/04/01 00:35:09;;;;;;;;;;;;;;;29.50;22.59;99519.25;5018386;28;897;-35
2022/04/01 00:37:35;;;;;;;;;;;;;;;29.48;22.40;99518.66;5018253;28;1218;-36
2022/04/01 00:40:00;;;;;;;;;;;;;;;29.99;22.19;99529.22;5021758;28;831;-35
2022/04/01 00:42:26;;;;;;;;;;;;;;;29.98;21.94;99551.97;5018558;28;742;-34
2022/04/01 00:44:52;;;;;;;;;;;;;;;29.51;22.28;99544.47;5018150;28;876;-38
2022/04/01 00:47:17;;;;;;;;;;;;;;;29.55;22.44;99551.06;5018228;28;835;-34
2022/04/01 00:49:43;;;;;;;;;;;;;;;29.60;22.37;99526.88;5018234;28;830;-36
2022/04/01 00:52:10;;;;;;;;;;;;;;;30.36;21.85;99536.41;5018568;28;814;-35
2022/04/01 00:54:35;;;;;;;;;;;;;;;30.08;22.08;99537.03;5020694;28;885;-33
2022/04/01 00:57:01;;;;;;;;;;;;;;;29.69;22.87;99541.75;5018282;28;814;-36
2022/04/01 00:59:26;;;;;;;;;;;;;;;29.53;23.13;99545.88;5021284;28;986;-36
2022/04/01 01:01:52;;;;;;;;;;;;;;;29.57;22.92;99547.09;5017894;28;875;-33
2022/04/01 01:04:19;;;;;;;;;;;;;;;29.92;22.70;99540.19;5018258;28;899;-33
2022/04/01 01:06:45;;;;;;;;;;;;;;;30.19;22.33;99537.06;5017715;28;1963;-34
2022/04/01 01:09:11;;;;;;;;;;;;;;;29.63;22.86;99541.84;5023090;28;884;-36
2022/04/01 01:11:36;;;;;;;;;;;;;;;29.61;22.86;99565.63;5018570;28;873;-33
2022/04/01 01:14:02;;;;;;;;;;;;;;;29.65;22.78;99564.09;5017529;28;846;-34
2022/04/01 01:16:28;;;;;;;;;;;;;;;29.75;22.55;99580.66;5017879;28;830;-37
2022/04/01 01:19:07;;;;;;;;;;;;;;;29.84;22.67;99555.94;5017584;28;881;-34
2022/04/01 01:21:32;;;;;;;;;;;;;;;29.64;22.40;99538.06;5017673;28;857;-33
2022/04/01 01:23:59;;;;;;;;;;;;;;;30.17;22.36;99547.31;5023413;28;889;-37
2022/04/01 01:26:24;;;;;;;;;;;;;;;30.55;21.96;99528.97;5018353;28;1894;-36
2022/04/01 01:28:50;;;;;;;;;;;;;;;29.69;22.89;99541.75;5017298;28;896;-36
2022/04/01 01:31:15;;;;;;;;;;;;;;;29.45;23.33;99536.19;5019399;28;913;-37
2022/04/01 01:33:43;;;;;;;;;;;;;;;29.27;23.41;99539.78;5018911;28;868;-35
2022/04/01 01:36:09;;;;;;;;;;;;;;;29.97;22.89;99542.19;5021461;28;817;-35
2022/04/01 01:38:35;;;;;;;;;;;;;;;30.06;22.52;99526.41;5020152;28;1163;-37
2022/04/01 01:41:02;;;;;;;;;;;;;;;29.52;23.22;99494.66;5018678;28;901;-38
2022/04/01 01:43:27;;;;;;;;;;;;;;;29.49;23.25;99482.41;5016782;28;865;-36
2022/04/01 01:45:52;;;;;;;;;;;;;;;29.59;23.18;99484.56;5016962;28;1971;-36
2022/04/01 01:48:21;;;;;;;;;;;;;;;29.98;22.63;99475.25;5017258;28;866;-36
2022/04/01 01:56:14;;;;;;;;;;;;;;;29.50;23.30;99465.06;5017077;28;674;-34
2022/04/01 01:58:40;;;;;;;;;;;;;;;29.51;23.18;99458.59;5017145;28;867;-36
2022/04/01 02:01:05;;;;;;;;;;;;;;;30.08;22.76;99456.47;5017129;28;789;-37
2022/04/01 02:03:30;;;;;;;;;;;;;;;29.95;22.69;99457.53;5022978;28;917;-36
2022/04/01 02:05:56;;;;;;;;;;;;;;;29.63;22.97;99455.94;5016839;28;1952;-37
2022/04/01 02:08:22;;;;;;;;;;;;;;;29.76;23.02;99437.84;5017310;28;901;-34
2022/04/01 02:10:47;;;;;;;;;;;;;;;30.26;22.40;99446.63;5023330;28;710;-36
2022/04/01 02:13:13;;;;;;;;;;;;;;;29.72;22.67;99451.03;5016370;28;927;-36
2022/04/01 02:15:38;;;;;;;;;;;;;;;29.86;22.66;99448.09;5019253;28;822;-37
2022/04/01 02:18:03;;;;;;;;;;;;;;;29.91;22.34;99413.78;5016524;28;861;-36
2022/04/01 02:20:31;;;;;;;;;;;;;;;30.31;22.42;99422.34;5016504;28;893;-33
2022/04/01 02:22:56;;;;;;;;;;;;;;;30.35;21.94;99447.91;5016504;28;826;-37
2022/04/01 02:25:21;;;;;;;;;;;;;;;29.69;22.85;99449.63;5021100;28;1898;-38
2022/04/01 02:27:47;;;;;;;;;;;;;;;29.63;22.79;99438.88;5022393;28;798;-37
2022/04/01 02:30:12;;;;;;;;;;;;;;;30.22;22.38;99459.00;5016647;28;1067;-35
2022/04/01 02:32:38;;;;;;;;;;;;;;;29.78;22.62;99433.03;5016725;28;801;-34
2022/04/01 02:35:04;;;;;;;;;;;;;;;29.70;22.83;99442.28;5016633;28;870;-36
2022/04/01 02:37:29;;;;;;;;;;;;;;;29.72;22.82;99432.06;5016716;28;1163;-35
2022/04/01 02:39:55;;;;;;;;;;;;;;;30.16;22.58;99458.84;5020828;28;888;-35
2022/04/01 02:42:20;;;;;;;;;;;;;;;30.73;21.74;99440.31;5016321;28;810;-36
2022/04/01 02:44:45;;;;;;;;;;;;;;;29.78;22.72;99425.69;5016403;28;794;-36
2022/04/01 02:47:11;;;;;;;;;;;;;;;29.58;23.01;99393.47;5016657;28;1981;-34
2022/04/01 02:49:36;;;;;;;;;;;;;;;29.67;22.75;99402.13;5016156;28;874;-35
2022/04/01 02:52:02;;;;;;;;;;;;;;;29.59;23.03;99387.03;5032244;28;1101;-36
2022/04/01 02:54:27;;;;;;;;;;;;;;;30.46;22.35;99388.47;5032641;28;1115;-39
2022/04/01 02:56:52;;;;;;;;;;;;;;;30.22;22.35;99380.34;5038763;28;1294;-37
2022/04/01 02:59:18;;;;;;;;;;;;;;;29.72;22.91;99372.44;5039163;28;1409;-39
2022/04/01 03:01:43;;;;;;;;;;;;;;;29.67;22.76;99372.31;5039310;28;841;-36
2022/04/01 03:04:09;;;;;;;;;;;;;;;30.27;22.45;99388.59;5039594;28;810;-35
2022/04/01 03:06:38;;;;;;;;;;;;;;;29.59;22.42;99389.75;5025859;28;1902;-34
2022/04/01 03:09:04;;;;;;;;;;;;;;;29.42;22.90;99422.88;5033126;28;866;-35
2022/04/01 03:11:29;;;;;;;;;;;;;;;29.42;23.12;99414.75;5020488;28;746;-35
2022/04/01 03:13:55;;;;;;;;;;;;;;;29.56;22.99;99387.47;5020097;28;789;-35
2022/04/01 03:16:22;;;;;;;;;;;;;;;29.57;23.00;99403.50;5022175;28;1073;-38
2022/04/01 03:18:47;;;;;;;;;;;;;;;29.21;23.24;99383.63;5034834;28;1080;-37
2022/04/01 03:21:12;;;;;;;;;;;;;;;28.96;23.60;99396.19;5038435;28;1108;-33
2022/04/01 03:23:38;;;;;;;;;;;;;;;29.00;23.32;99412.00;5026761;28;1282;-37
2022/04/01 03:26:03;;;;;;;;;;;;;;;29.01;23.24;99440.75;5021193;28;1967;-39
2022/04/01 03:28:29;;;;;;;;;;;;;;;29.00;23.67;99447.19;5019940;28;903;-34
2022/04/01 03:30:54;;;;;;;;;;;;;;;28.92;23.60;99446.44;5033155;28;1089;-36
2022/04/01 03:33:20;;;;;;;;;;;;;;;28.88;23.40;99471.47;5038899;28;896;-37
2022/04/01 03:35:46;;;;;;;;;;;;;;;28.80;23.53;99496.94;5038487;28;885;-36
2022/04/01 03:38:12;;;;;;;;;;;;;;;28.71;23.74;99480.19;5020481;28;986;-34
2022/04/01 03:40:38;;;;;;;;;;;;;;;28.77;23.86;99475.75;5020928;28;1000;-36
2022/04/01 03:43:05;;;;;;;;;;;;;;;28.27;23.25;99497.22;5018849;28;906;-32
2022/04/01 03:45:31;;;;;;;;;;;;;;;27.80;23.10;99478.66;5023010;28;1906;-36
2022/04/01 03:48:00;;;;;;;;;;;;;;;27.65;23.17;99470.84;5017612;28;988;-32
2022/04/01 03:50:30;;;;;;;;;;;;;;;27.28;23.16;99441.78;5018129;28;898;-32
2022/04/01 03:53:05;;;;;;;;;;;;;;;27.28;23.05;99434.50;5019464;28;746;-31
2022/04/01 03:55:31;;;;;;;;;;;;;;;27.21;23.06;99434.53;5025002;28;868;-32
2022/04/01 03:57:56;;;;;;;;;;;;;;;27.03;23.08;99446.03;5027352;28;1164;-33
2022/04/01 04:00:21;;;;;;;;;;;;;;;27.05;23.28;99457.44;5019429;28;873;-33
2022/04/01 04:02:47;;;;;;;;;;;;;;;26.92;23.29;99436.72;5017601;28;877;-35
2022/04/01 04:05:13;;;;;;;;;;;;;;;27.19;23.81;99428.53;5021683;28;1902;-32
2022/04/01 04:07:39;;;;;;;;;;;;;;;27.32;23.36;99413.28;5023034;28;758;-39
2022/04/01 04:10:05;;;;;;;;;;;;;;;27.88;23.17;99400.03;5029045;28;1231;-36
2022/04/01 04:12:31;;;;;;;;;;;;;;;27.12;23.60;99401.56;5017650;28;766;-37
2022/04/01 04:14:56;;;;;;;;;;;;;;;27.01;23.34;99384.19;5017695;28;961;-37
2022/04/01 04:17:28;;;;;;;;;;;;;;;26.89;23.61;99408.28;5017137;28;869;-36
2022/04/01 04:20:10;;;;;;;;;;;;;;;27.04;23.08;99420.72;5017948;28;751;-32
2022/04/01 04:22:41;;;;;;;;;;;;;;;27.19;23.21;99442.03;5019811;28;846;-34
2022/04/01 04:25:13;;;;;;;;;;;;;;;27.13;23.17;99441.00;5021149;28;1902;-36
2022/04/01 04:27:40;;;;;;;;;;;;;;;27.16;23.31;99420.84;5018511;28;943;-35
2022/04/01 04:30:08;;;;;;;;;;;;;;;27.28;22.99;99423.69;5021234;28;1128;-35
2022/04/01 04:32:34;;;;;;;;;;;;;;;27.38;23.22;99436.72;5019762;28;900;-34
2022/04/01 04:35:06;;;;;;;;;;;;;;;27.32;23.25;99484.34;5022495;28;899;-35
2022/04/01 04:37:32;;;;;;;;;;;;;;;26.84;23.90;99509.81;5029266;28;1339;-34
2022/04/01 04:39:58;;;;;;;;;;;;;;;26.93;23.63;99496.88;5028937;28;1144;-31
2022/04/01 04:42:23;;;;;;;;;;;;;;;26.92;23.59;99492.53;5029440;28;1092;-33
2022/04/01 04:44:48;;;;;;;;;;;;;;;27.01;23.28;99480.47;5016483;28;873;-32
2022/04/01 04:47:14;;;;;;;;;;;;;;;27.16;22.96;99463.22;5018651;28;1914;-36
2022/04/01 04:49:42;;;;;;;;;;;;;;;27.36;23.02;99469.34;5018575;28;798;-32
2022/04/01 04:52:08;;;;;;;;;;;;;;;27.14;23.34;99449.94;5018087;28;869;-31
2022/04/01 04:54:33;;;;;;;;;;;;;;;27.10;23.27;99433.34;5023306;28;865;-36
2022/04/01 04:56:58;;;;;;;;;;;;;;;27.21;23.36;99439.91;5017614;28;854;-33
2022/04/01 04:59:24;;;;;;;;;;;;;;;27.35;23.07;99448.78;5015798;28;1412;-37
2022/04/01 05:02:12;;;;;;;;;;;;;;;27.26;22.70;99450.91;5030161;28;766;-39
2022/04/01 05:04:42;;;;;;;;;;;;;;;27.18;22.71;99442.22;4997596;28;1190;-37
2022/04/01 05:07:08;;;;;;;;;;;;;;;27.12;22.76;99470.91;5016554;28;1975;-39
2022/04/01 05:09:42;;;;;;;;;;;;;;;27.26;22.63;99460.88;5020288;28;907;-39
2022/04/01 05:12:08;;;;;;;;;;;;;;;27.01;22.80;99469.66;5029048;28;902;-36
2022/04/01 05:14:36;;;;;;;;;;;;;;;27.06;22.69;99463.69;5015745;28;885;-39
2022/04/01 05:17:02;;;;;;;;;;;;;;;27.18;22.77;99451.16;5034126;28;1088;-41
2022/04/01 05:19:28;;;;;;;;;;;;;;;27.19;22.45;99449.28;5017368;28;778;-40
2022/04/01 05:22:03;;;;;;;;;;;;;;;27.22;22.67;99446.16;5019981;28;1049;-39
2022/04/01 05:24:34;;;;;;;;;;;;;;;27.25;22.23;99456.53;5017654;28;881;-40
2022/04/01 05:27:00;;;;;;;;;;;;;;;27.25;22.58;99451.97;5020087;28;1906;-37
2022/04/01 05:29:26;;;;;;;;;;;;;;;27.10;22.48;99446.00;5015798;28;1023;-38
2022/04/01 05:31:55;;;;;;;;;;;;;;;27.29;22.35;99432.63;5026653;28;960;-39
2022/04/01 05:34:47;;;;;;;;;;;;;;;27.36;22.53;99449.63;5030505;28;1331;-38
2022/04/01 05:37:13;;;;;;;;;;;;;;;27.32;22.61;99438.44;5012852;28;1431;-39
2022/04/01 05:39:39;;;;;;;;;;;;;;;26.75;22.50;99439.88;5022708;28;881;-36
2022/04/01 05:42:07;;;;;;;;;;;;;;;26.64;22.41;99443.25;5016382;28;785;-37
2022/04/01 05:44:32;;;;;;;;;;;;;;;26.87;23.08;99450.00;5016553;28;793;-38
2022/04/01 05:46:57;;;;;;;;;;;;;;;26.76;23.35;99452.31;5015905;28;1910;-39
2022/04/01 05:49:23;;;;;;;;;;;;;;;26.65;23.68;99464.63;5016986;28;1391;-39
2022/04/01 05:51:48;;;;;;;;;;;;;;;26.71;23.76;99454.81;5020536;28;845;-40
2022/04/01 05:54:19;;;;;;;;;;;;;;;26.60;23.67;99458.19;5021455;28;1454;-39
2022/04/01 05:56:47;;;;;;;;;;;;;;;26.74;23.58;99465.19;5022069;28;860;-39
2022/04/01 05:59:16;;;;;;;;;;;;;;;26.58;23.73;99442.22;5016381;28;762;-39
2022/04/01 06:01:59;;;;;;;;;;;;;;;26.84;23.88;99450.44;5019755;28;1222;-42
2022/04/01 06:04:36;;;;;;;;;;;;;;;26.68;23.99;99440.94;5021958;28;818;-37
2022/04/01 06:07:05;;;;;;;;;;;;;;;26.59;23.84;99435.75;5015779;28;1977;-39
2022/04/01 06:09:33;;;;;;;;;;;;;;;26.50;23.59;99445.97;5017611;28;939;-38
2022/04/01 06:12:03;;;;;;;;;;;;;;;26.67;23.26;99431.19;5013695;28;817;-39
2022/04/01 06:14:37;;;;;;;;;;;;;;;26.76;23.47;99436.13;5034249;28;849;-40
2022/04/01 06:17:12;;;;;;;;;;;;;;;26.74;23.63;99427.41;5034060;28;1215;-41
2022/04/01 06:19:41;;;;;;;;;;;;;;;26.85;23.53;99430.50;5025805;28;833;-39
2022/04/01 06:22:08;;;;;;;;;;;;;;;26.80;24.03;99423.06;5017344;28;1541;-41
2022/04/01 06:24:52;;;;;;;;;;;;;;;26.85;24.01;99417.84;5022174;28;1718;-39
2022/04/01 06:27:22;;;;;;;;;;;;;;;26.97;23.89;99418.00;5029670;28;1969;-39
2022/04/01 06:29:52;;;;;;;;;;;;;;;27.00;23.70;99403.25;5028958;28;866;-38
2022/04/01 06:32:32;;;;;;;;;;;;;;;26.93;24.19;99381.69;5029542;28;806;-39
2022/04/01 06:35:05;;;;;;;;;;;;;;;27.00;24.04;99360.91;5020434;28;1053;-39
2022/04/01 06:37:36;;;;;;;;;;;;;;;27.17;23.80;99381.19;5029993;28;1221;-39
2022/04/01 06:40:05;;;;;;;;;;;;;;;27.11;24.21;99399.09;5024168;28;1202;-39
2022/04/01 06:42:31;;;;;;;;;;;;;;;26.92;24.29;99415.13;5031936;28;1290;-37
2022/04/01 06:44:56;;;;;;;;;;;;;;;26.88;23.96;99417.41;5034774;28;1239;-41
2022/04/01 06:47:22;;;;;;;;;;;;;;;26.86;23.98;99416.00;5034241;28;1901;-37
2022/04/01 06:49:47;;;;;;;;;;;;;;;26.81;24.27;99413.91;5032042;28;1294;-39
2022/04/01 06:52:13;;;;;;;;;;;;;;;26.95;23.66;99413.84;5031323;28;1140;-38
2022/04/01 06:54:38;;;;;;;;;;;;;;;26.98;23.44;99422.34;5034035;28;790;-38
2022/04/01 06:57:03;;;;;;;;;;;;;;;27.02;23.58;99423.63;5016381;28;852;-38
2022/04/01 06:59:29;;;;;;;;;;;;;;;26.96;23.47;99419.03;5016229;28;817;-36
2022/04/01 07:01:54;;;;;;;;;;;;;;;26.92;23.53;99398.09;5021868;28;1473;-39
2022/04/01 07:04:19;;;;;;;;;;;;;;;27.16;23.67;99410.03;5020371;28;1085;-37
2022/04/01 07:06:45;;;;;;;;;;;;;;;27.02;23.43;99406.59;5034827;28;2023;-39
2022/04/01 07:09:10;;;;;;;;;;;;;;;27.06;23.87;99407.81;5019767;28;877;-37
2022/04/01 07:11:35;;;;;;;;;;;;;;;26.92;23.94;99408.91;5020499;28;1113;-39
2022/04/01 07:14:02;;;;;;;;;;;;;;;27.09;23.78;99404.69;5030010;28;1076;-38
2022/04/01 07:16:27;;;;;;;;;;;;;;;27.25;23.81;99400.66;5034727;28;833;-40
2022/04/01 07:18:52;;;;;;;;;;;;;;;27.18;24.09;99391.75;5035425;28;994;-38
2022/04/01 07:21:17;;;;;;;;;;;;;;;27.29;23.56;99381.31;5026019;28;777;-39
2022/04/01 07:23:43;;;;;;;;;;;;;;;27.30;23.80;99393.78;5017227;28;873;-39
2022/04/01 07:26:09;;;;;;;;;;;;;;;27.33;23.80;99402.28;5020377;28;1898;-38
2022/04/01 07:28:34;;;;;;;;;;;;;;;26.91;23.63;99391.88;5019346;28;1156;-36
2022/04/01 07:32:28;;;;;;;;;;;;;;;27.07;23.43;99378.97;5030527;28;1077;-36
2022/04/01 07:33:44;;;;;;;;;;;;;;;26.96;23.58;99383.97;5026868;28;942;-37
2022/04/01 07:36:10;;;;;;;;;;;;;;;27.24;23.43;99388.19;5034009;28;1207;-38
2022/04/01 07:38:36;;;;;;;;;;;;;;;27.29;23.27;99382.16;5036083;28;1239;-36
2022/04/01 07:41:01;;;;;;;;;;;;;;;27.28;23.16;99390.47;5030504;28;1246;-38
2022/04/01 07:43:27;;;;;;;;;;;;;;;27.21;23.24;99398.63;5036826;28;1314;-38
2022/04/01 07:45:52;;;;;;;;;;;;;;;27.29;23.23;99400.22;5034152;28;1898;-38
2022/04/01 07:48:17;;;;;;;;;;;;;;;27.20;22.88;99395.09;5037788;28;1306;-38
2022/04/01 07:50:43;;;;;;;;;;;;;;;27.40;22.98;99399.53;5037975;28;1239;-39
2022/04/01 07:53:08;;;;;;;;;;;;;;;27.39;23.22;99398.69;5033281;28;1053;-39
2022/04/01 07:55:34;;;;;;;;;;;;;;;27.54;23.30;99394.88;5034744;28;1240;-40
2022/04/01 07:57:59;;;;;;;;;;;;;;;27.53;23.42;99390.50;5036146;28;837;-40
2022/04/01 08:00:24;;;;;;;;;;;;;;;27.55;23.43;99382.19;5031885;28;1247;-39
2022/04/01 08:02:52;;;;;;;;;;;;;;;27.53;23.43;99370.78;5037545;28;1365;-40
2022/04/01 08:05:17;;;;;;;;;;;;;;;27.56;23.35;99373.84;5035694;28;1959;-39
2022/04/01 08:07:43;;;;;;;;;;;;;;;27.74;23.03;99377.72;5037746;28;1195;-38
2022/04/01 08:10:08;;;;;;;;;;;;;;;27.62;22.94;99347.84;5037833;28;908;-39
2022/04/01 08:12:34;;;;;;;;;;;;;;;27.80;22.85;99347.09;5025718;28;786;-39
2022/04/01 08:15:00;;;;;;;;;;;;;;;28.07;22.44;99348.72;5018450;28;805;-39
2022/04/01 08:17:25;;;;;;;;;;;;;;;27.80;22.74;99348.97;5027461;28;908;-38
2022/04/01 08:19:50;;;;;;;;;;;;;;;27.69;23.00;99339.72;5030125;28;782;-39
2022/04/01 08:22:18;;;;;;;;;;;;;;;27.71;22.80;99341.13;5026935;28;891;-39
2022/04/01 08:24:44;;;;;;;;;;;;;;;28.02;22.64;99322.38;5024764;28;763;-37
2022/04/01 08:27:09;;;;;;;;;;;;;;;27.82;22.85;99336.06;5023051;28;1906;-39
2022/04/01 08:29:36;;;;;;;;;;;;;;;27.99;22.64;99344.44;5037390;28;1318;-38
2022/04/01 08:32:02;;;;;;;;;;;;;;;27.67;22.83;99345.31;5035544;28;1076;-38
2022/04/01 08:34:27;;;;;;;;;;;;;;;27.86;22.54;99342.69;5037313;28;853;-38
2022/04/01 08:36:52;;;;;;;;;;;;;;;27.86;22.88;99342.69;5034210;28;770;-39
2022/04/01 08:39:18;;;;;;;;;;;;;;;27.74;22.76;99339.88;5022330;28;1085;-37
2022/04/01 08:41:43;;;;;;;;;;;;;;;27.54;23.21;99348.13;5018566;28;794;-40
2022/04/01 08:44:08;;;;;;;;;;;;;;;27.56;23.03;99335.22;5020002;28;977;-38
2022/04/01 08:46:34;;;;;;;;;;;;;;;27.58;23.00;99338.50;5030382;28;1991;-40
2022/04/01 08:48:59;;;;;;;;;;;;;;;27.80;23.04;99340.84;5034015;28;1187;-38
2022/04/01 08:51:26;;;;;;;;;;;;;;;27.73;23.00;99333.66;5029070;28;1216;-38
2022/04/01 08:53:51;;;;;;;;;;;;;;;27.79;22.97;99337.34;5028393;28;1302;-37
2022/04/01 08:56:18;;;;;;;;;;;;;;;27.90;22.80;99340.34;5031697;28;1180;-38
2022/04/01 08:58:43;;;;;;;;;;;;;;;27.71;23.22;99337.63;5035621;28;1318;-36
2022/04/01 09:01:09;;;;;;;;;;;;;;;27.89;22.88;99354.91;5033608;28;1184;-36
2022/04/01 09:03:34;;;;;;;;;;;;;;;27.66;23.12;99345.53;5032802;28;1298;-35
2022/04/01 09:06:02;;;;;;;;;;;;;;;27.84;22.88;99342.88;5032651;28;1910;-35
2022/04/01 09:08:33;;;;;;;;;;;;;;;27.80;22.67;99346.25;5035016;28;1132;-41
2022/04/01 09:11:02;;;;;;;;;;;;;;;27.92;22.87;99325.59;5030601;28;975;-37
2022/04/01 09:13:28;;;;;;;;;;;;;;;28.12;21.95;99321.84;5030950;28;1267;-39
2022/04/01 09:15:54;;;;;;;;;;;;;;;27.96;22.18;99329.47;5032681;28;1306;-36
2022/04/01 09:18:35;;;;;;;;;;;;;;;27.94;22.01;99311.84;5034213;28;1302;-37
2022/04/01 09:21:00;;;;;;;;;;;;;;;27.91;22.34;99345.53;5030318;28;1151;-38
2022/04/01 09:23:26;;;;;;;;;;;;;;;27.79;22.17;99340.06;5031280;28;1239;-38
2022/04/01 09:25:51;;;;;;;;;;;;;;;27.91;22.23;99336.63;5030629;28;1906;-38
2022/04/01 09:28:26;;;;;;;;;;;;;;;27.72;22.69;99325.75;5029054;28;921;-39
2022/04/01 09:31:03;;;;;;;;;;;;;;;27.79;22.03;99318.44;5018900;28;1535;-38
2022/04/01 09:33:31;;;;;;;;;;;;;;;27.80;21.96;99330.88;5034703;28;1204;-37
2022/04/01 09:35:56;;;;;;;;;;;;;;;27.90;21.59;99349.28;5026432;28;948;-38
2022/04/01 09:38:22;;;;;;;;;;;;;;;28.07;21.46;99365.78;5023889;28;1266;-38
2022/04/01 09:40:50;;;;;;;;;;;;;;;27.90;22.01;99354.69;5022410;28;864;-39
2022/04/01 09:43:17;;;;;;;;;;;;;;;27.97;21.87;99355.47;5016932;28;794;-38
2022/04/01 09:45:42;;;;;;;;;;;;;;;27.73;22.45;99344.47;5030309;28;1973;-33
2022/04/01 09:48:08;;;;;;;;;;;;;;;27.34;22.14;99382.31;5027432;28;1101;-38
2022/04/01 09:50:35;;;;;;;;;;;;;;;27.56;21.69;99336.03;5022994;28;1219;-37
2022/04/01 09:53:13;;;;;;;;;;;;;;;27.85;21.60;99316.69;5020761;28;895;-39
2022/04/01 09:55:42;;;;;;;;;;;;;;;27.49;22.49;99327.19;5018491;28;1034;-36
2022/04/01 09:58:08;;;;;;;;;;;;;;;27.39;22.20;99338.47;5019878;28;1093;-38
2022/04/01 10:00:33;;;;;;;;;;;;;;;27.53;22.68;99328.38;5020014;28;1494;-35
2022/04/01 10:03:01;;;;;;;;;;;;;;;27.44;22.64;99319.75;5029087;28;1228;-38
2022/04/01 10:05:28;;;;;;;;;;;;;;;27.73;22.20;99319.31;5027978;28;1961;-39
2022/04/01 10:07:54;;;;;;;;;;;;;;;27.48;23.02;99298.50;5041002;28;1284;-35
2022/04/01 10:10:19;;;;;;;;;;;;;;;27.32;22.71;99286.38;5032164;28;1203;-35
2022/04/01 10:12:45;;;;;;;;;;;;;;;27.30;22.67;99275.81;5024238;28;1243;-36
2022/04/01 10:15:11;;;;;;;;;;;;;;;27.36;22.87;99299.22;5018182;28;1410;-35
2022/04/01 10:17:36;;;;;;;;;;;;;;;27.28;22.72;99293.28;5033046;28;1167;-33
2022/04/01 10:20:02;;;;;;;;;;;;;;;27.35;22.55;99286.78;5032579;28;1013;-35
2022/04/01 10:22:28;;;;;;;;;;;;;;;27.40;22.53;99286.13;5025734;28;994;-38
2022/04/01 10:24:53;;;;;;;;;;;;;;;27.30;22.33;99299.28;5021076;28;883;-36
2022/04/01 10:27:23;;;;;;;;;;;;;;;27.33;22.47;99296.97;5015407;28;1906;-37
2022/04/01 10:29:48;;;;;;;;;;;;;;;27.37;22.29;99275.75;5017444;28;1214;-38
2022/04/01 10:32:36;;;;;;;;;;;;;;;27.59;22.10;99265.38;5021300;28;929;-38
2022/04/01 10:35:02;;;;;;;;;;;;;;;28.15;21.81;99264.63;5010758;28;1592;-37
2022/04/01 10:37:28;;;;;;;;;;;;;;;28.24;21.98;99265.13;5016675;28;1009;-37
2022/04/01 10:39:55;;;;;;;;;;;;;;;27.83;22.63;99256.66;5019043;28;814;-36
2022/04/01 10:42:24;;;;;;;;;;;;;;;27.98;22.33;99262.50;5024659;28;1159;-38
2022/04/01 10:44:53;;;;;;;;;;;;;;;28.60;21.94;99263.44;5025813;28;1224;-36
2022/04/01 10:47:23;;;;;;;;;;;;;;;28.08;22.66;99248.47;5025603;28;1914;-38
2022/04/01 10:52:34;;;;;;;;;;;;;;;28.01;22.26;99236.09;5016100;28;628;-37
2022/04/01 10:55:02;;;;;;;;;;;;;;;27.91;22.24;99253.66;5027968;28;1042;-38
2022/04/01 10:57:28;;;;;;;;;;;;;;;27.90;22.08;99257.41;5032741;28;1076;-38
2022/04/01 10:59:54;;;;;;;;;;;;;;;27.94;22.24;99250.53;5032124;28;1730;-37
2022/04/01 11:02:20;;;;;;;;;;;;;;;27.63;22.19;99246.84;5020456;28;911;-38
2022/04/01 11:04:45;;;;;;;;;;;;;;;27.81;21.99;99251.47;5016582;28;819;-38
2022/04/01 11:07:12;;;;;;;;;;;;;;;27.87;21.99;99228.97;5015964;28;1909;-38
2022/04/01 11:09:37;;;;;;;;;;;;;;;27.66;22.25;99243.69;5020001;28;968;-37
2022/04/01 11:12:15;;;;;;;;;;;;;;;28.17;21.26;99237.34;5027377;28;1104;-37
2022/04/01 11:15:11;;;;;;;;;;;;;;;28.19;21.20;99236.09;5038895;28;904;-33
2022/04/01 11:17:37;;;;;;;;;;;;;;;28.35;21.25;99228.41;5028271;28;1491;-39
2022/04/01 11:20:15;;;;;;;;;;;;;;;28.46;21.61;99219.53;5035636;28;1002;-39
2022/04/01 11:22:45;;;;;;;;;;;;;;;29.06;20.95;99210.78;5025986;28;1040;-34
2022/04/01 11:25:12;;;;;;;;;;;;;;;29.09;21.28;99204.88;5023574;28;825;-39
2022/04/01 11:27:42;;;;;;;;;;;;;;;29.30;21.04;99195.34;5019808;28;1898;-38
2022/04/01 11:30:07;;;;;;;;;;;;;;;29.41;21.25;99187.47;5019260;28;801;-39
2022/04/01 11:32:36;;;;;;;;;;;;;;;29.53;20.93;99182.84;5019561;28;879;-37
2022/04/01 11:35:02;;;;;;;;;;;;;;;29.63;20.92;99167.91;5024762;28;1062;-38
2022/04/01 11:37:28;;;;;;;;;;;;;;;29.72;20.79;99171.88;5022047;28;1173;-38
2022/04/01 11:40:02;;;;;;;;;;;;;;;29.90;20.42;99172.78;5025572;28;1203;-39
2022/04/01 11:42:27;;;;;;;;;;;;;;;29.88;20.44;99166.78;5018148;28;1167;-38
2022/04/01 11:44:58;;;;;;;;;;;;;;;30.10;20.17;99160.69;5023899;28;1485;-39
2022/04/01 11:47:34;;;;;;;;;;;;;;;29.90;20.55;99146.50;5030227;28;2010;-38
2022/04/01 11:50:09;;;;;;;;;;;;;;;30.13;19.84;99138.53;5032434;28;1028;-37
2022/04/01 11:52:35;;;;;;;;;;;;;;;30.14;20.09;99137.44;5035566;28;1072;-37
2022/04/01 11:55:00;;;;;;;;;;;;;;;30.10;20.04;99120.00;5032488;28;1119;-38
2022/04/01 11:57:28;;;;;;;;;;;;;;;29.92;20.17;99130.00;5035594;28;1101;-38
2022/04/01 11:59:53;;;;;;;;;;;;;;;30.18;19.73;99127.75;5033511;28;1565;-39
2022/04/01 12:02:18;;;;;;;;;;;;;;;30.18;19.90;99128.56;5032628;28;1040;-38
2022/04/01 12:04:44;;;;;;;;;;;;;;;30.12;19.94;99124.13;5036504;28;1076;-38
2022/04/01 12:09:53;;;;;;;;;;;;;;;30.29;19.95;99104.38;5034169;28;1013;-39
2022/04/01 12:12:25;;;;;;;;;;;;;;;30.43;19.67;99097.56;5035330;28;1160;-38
2022/04/01 12:14:51;;;;;;;;;;;;;;;30.01;20.16;99095.19;5030816;28;1188;-38
2022/04/01 12:17:17;;;;;;;;;;;;;;;30.08;20.06;99085.00;5035023;28;1175;-39
2022/04/01 12:19:42;;;;;;;;;;;;;;;29.90;20.32;99076.00;5031725;28;1096;-39
2022/04/01 12:22:08;;;;;;;;;;;;;;;29.63;20.66;99089.34;5032906;28;1081;-39
2022/04/01 12:24:35;;;;;;;;;;;;;;;29.23;21.26;99078.19;5035170;28;1096;-36
2022/04/01 12:27:01;;;;;;;;;;;;;;;29.45;20.73;99064.84;5033137;28;1960;-38
2022/04/01 12:29:26;;;;;;;;;;;;;;;29.48;20.75;99071.66;5029649;28;1116;-34
2022/04/01 12:34:54;;;;;;;;;;;;;;;29.69;20.38;99061.25;5028755;28;979;-39
2022/04/01 12:37:20;;;;;;;;;;;;;;;29.78;20.27;99054.38;5033767;28;1070;-39
2022/04/01 12:39:55;;;;;;;;;;;;;;;29.58;20.31;99060.19;5035245;28;1088;-39
2022/04/01 12:42:21;;;;;;;;;;;;;;;29.56;20.20;99057.72;5033833;28;1049;-39
2022/04/01 12:44:46;;;;;;;;;;;;;;;29.83;20.25;99050.94;5032236;28;1239;-39
2022/04/01 12:47:13;;;;;;;;;;;;;;;29.36;20.74;99041.91;5018273;28;1965;-40
2022/04/01 12:49:41;;;;;;;;;;;;;;;29.72;20.45;99047.22;5020185;28;1292;-36
2022/04/01 12:52:12;;;;;;;;;;;;;;;29.68;20.46;99055.00;5026929;28;946;-40
2022/04/01 12:54:39;;;;;;;;;;;;;;;29.91;20.32;99044.31;5031852;28;1250;-40
2022/04/01 12:57:08;;;;;;;;;;;;;;;29.98;20.22;99046.88;5021620;28;932;-40
2022/04/01 12:59:45;;;;;;;;;;;;;;;29.75;20.32;99057.59;5028342;28;843;-37
2022/04/01 13:02:26;;;;;;;;;;;;;;;29.69;20.35;99056.69;5022589;28;912;-38
2022/04/01 13:04:53;;;;;;;;;;;;;;;29.18;20.49;99045.59;5024413;28;798;-38
2022/04/01 13:07:30;;;;;;;;;;;;;;;28.95;20.67;99049.94;5020295;28;1963;-38
2022/04/01 13:09:56;;;;;;;;;;;;;;;29.13;20.86;99043.59;5027683;28;809;-37
2022/04/01 13:12:22;;;;;;;;;;;;;;;29.11;21.06;99042.19;5036777;28;816;-37
2022/04/01 13:15:15;;;;;;;;;;;;;;;28.93;21.07;99044.78;5035408;28;1037;-31
2022/04/01 13:17:43;;;;;;;;;;;;;;;29.13;20.85;99061.75;5030534;28;1231;-36